sensor_id;sensor_type;location;lat;lon;timestamp;pressure;altitude;pressure_sealevel;temperature;humidity
10176;BME280;18221;38.704;0.152;2022-09-21T00:09:25;99057.38;;;27.71;45.27
10176;BME280;18221;38.704;0.152;2022-09-21T00:11:53;99054.03;;;27.69;45.41
10176;BME280;18221;38.704;0.152;2022-09-21T00:14:21;99053.53;;;27.72;45.29
10176;BME280;18221;38.704;0.152;2022-09-21T00:16:49;99051.66;;;27.73;45.27
10176;BME280;18221;38.704;0.152;2022-09-21T00:19:17;99050.16;;;27.65;45.88
10176;BME280;18221;38.704;0.152;2022-09-21T00:21:45;99049.91;;;27.67;45.38
10176;BME280;18221;38.704;0.152;2022-09-21T00:24:13;99047.78;;;27.52;46.03
10176;BME280;18221;38.704;0.152;2022-09-21T00:26:42;99049.31;;;27.48;46.16
10176;BME280;18221;38.704;0.152;2022-09-21T00:29:10;99049.09;;;27.49;45.95
10176;BME280;18221;38.704;0.152;2022-09-21T00:31:39;99058.03;;;27.45;46.21
10176;BME280;18221;38.704;0.152;2022-09-21T00:34:07;99051.97;;;27.43;46.32
10176;BME280;18221;38.704;0.152;2022-09-21T00:36:35;99051.66;;;27.39;46.47
10176;BME280;18221;38.704;0.152;2022-09-21T00:39:03;99042.16;;;27.42;46.28
10176;BME280;18221;38.704;0.152;2022-09-21T00:41:33;99046.91;;;27.35;46.59
10176;BME280;18221;38.704;0.152;2022-09-21T00:44:32;99035.69;;;27.48;46.36
10176;BME280;18221;38.704;0.152;2022-09-21T00:47:08;99042.31;;;27.52;46.01
10176;BME280;18221;38.704;0.152;2022-09-21T00:49:37;99046.03;;;27.46;46.07
10176;BME280;18221;38.704;0.152;2022-09-21T00:52:07;99033.41;;;27.40;46.44
10176;BME280;18221;38.704;0.152;2022-09-21T00:54:41;99041.59;;;27.40;46.50
10176;BME280;18221;38.704;0.152;2022-09-21T00:57:10;99029.47;;;27.36;46.54
10176;BME280;18221;38.704;0.152;2022-09-21T00:59:43;99026.50;;;27.37;46.49
10176;BME280;18221;38.704;0.152;2022-09-21T01:02:11;99022.38;;;27.35;46.62
10176;BME280;18221;38.704;0.152;2022-09-21T01:04:41;99032.19;;;27.36;46.41
10176;BME280;18221;38.704;0.152;2022-09-21T01:07:13;99028.63;;;27.35;46.39
10176;BME280;18221;38.704;0.152;2022-09-21T01:09:46;99023.66;;;27.32;46.59
10176;BME280;18221;38.704;0.152;2022-09-21T01:12:35;99020.38;;;27.30;46.63
10176;BME280;18221;38.704;0.152;2022-09-21T01:15:25;99023.84;;;27.26;46.75
10176;BME280;18221;38.704;0.152;2022-09-21T01:18:07;99012.69;;;27.27;46.38
10176;BME280;18221;38.704;0.152;2022-09-21T01:21:17;99011.34;;;27.30;46.55
10176;BME280;18221;38.704;0.152;2022-09-21T01:24:34;99008.63;;;27.30;46.58
10176;BME280;18221;38.704;0.152;2022-09-21T01:27:42;99002.13;;;27.31;46.52
10176;BME280;18221;38.704;0.152;2022-09-21T01:30:16;98999.78;;;27.23;46.33
10176;BME280;18221;38.704;0.152;2022-09-21T01:32:51;98997.81;;;27.18;46.72
10176;BME280;18221;38.704;0.152;2022-09-21T01:35:25;98989.28;;;27.15;46.65
10176;BME280;18221;38.704;0.152;2022-09-21T01:37:59;98985.16;;;27.12;46.82
10176;BME280;18221;38.704;0.152;2022-09-21T01:40:32;98989.56;;;27.13;46.94
10176;BME280;18221;38.704;0.152;2022-09-21T01:43:04;98989.63;;;27.18;46.71
10176;BME280;18221;38.704;0.152;2022-09-21T01:45:38;98993.84;;;27.26;46.57
10176;BME280;18221;38.704;0.152;2022-09-21T01:48:08;98992.50;;;27.12;46.80
10176;BME280;18221;38.704;0.152;2022-09-21T01:50:41;98983.53;;;27.11;46.88
10176;BME280;18221;38.704;0.152;2022-09-21T01:53:19;98983.75;;;27.10;46.84
10176;BME280;18221;38.704;0.152;2022-09-21T01:55:52;98981.28;;;27.08;47.00
10176;BME280;18221;38.704;0.152;2022-09-21T01:58:29;98979.97;;;27.11;46.97
10176;BME280;18221;38.704;0.152;2022-09-21T02:01:01;98985.91;;;27.08;47.06
10176;BME280;18221;38.704;0.152;2022-09-21T02:03:37;98981.88;;;27.10;47.22
10176;BME280;18221;38.704;0.152;2022-09-21T02:06:07;98975.59;;;27.10;47.28
10176;BME280;18221;38.704;0.152;2022-09-21T02:08:37;98974.34;;;27.01;47.48
10176;BME280;18221;38.704;0.152;2022-09-21T02:11:06;98967.72;;;26.96;47.60
10176;BME280;18221;38.704;0.152;2022-09-21T02:13:40;98967.50;;;26.98;47.52
10176;BME280;18221;38.704;0.152;2022-09-21T02:16:33;98962.13;;;27.03;47.68
10176;BME280;18221;38.704;0.152;2022-09-21T02:19:13;98970.88;;;27.05;47.34
10176;BME280;18221;38.704;0.152;2022-09-21T02:21:56;98953.69;;;27.05;47.30
10176;BME280;18221;38.704;0.152;2022-09-21T02:24:38;98959.16;;;27.05;47.18
10176;BME280;18221;38.704;0.152;2022-09-21T02:27:19;98958.00;;;27.01;47.35
10176;BME280;18221;38.704;0.152;2022-09-21T02:29:57;98966.19;;;27.01;47.45
10176;BME280;18221;38.704;0.152;2022-09-21T02:32:36;98966.19;;;27.01;47.44
10176;BME280;18221;38.704;0.152;2022-09-21T02:35:15;98968.81;;;26.95;47.48
10176;BME280;18221;38.704;0.152;2022-09-21T02:37:50;98964.91;;;26.91;47.51
10176;BME280;18221;38.704;0.152;2022-09-21T02:40:27;98966.66;;;26.98;47.49
10176;BME280;18221;38.704;0.152;2022-09-21T02:43:01;98962.13;;;27.03;47.32
10176;BME280;18221;38.704;0.152;2022-09-21T02:45:37;98959.16;;;27.05;47.22
10176;BME280;18221;38.704;0.152;2022-09-21T02:48:14;98964.38;;;27.06;47.05
10176;BME280;18221;38.704;0.152;2022-09-21T02:50:47;98965.09;;;27.02;47.47
10176;BME280;18221;38.704;0.152;2022-09-21T02:53:24;98962.34;;;27.02;47.17
10176;BME280;18221;38.704;0.152;2022-09-21T02:55:57;98960.72;;;27.01;47.31
10176;BME280;18221;38.704;0.152;2022-09-21T02:58:29;98955.75;;;26.98;47.54
10176;BME280;18221;38.704;0.152;2022-09-21T03:00:59;98954.84;;;26.92;47.51
10176;BME280;18221;38.704;0.152;2022-09-21T03:03:28;98949.88;;;26.89;47.64
10176;BME280;18221;38.704;0.152;2022-09-21T03:05:57;98950.13;;;26.87;47.79
10176;BME280;18221;38.704;0.152;2022-09-21T03:08:25;98955.50;;;26.82;47.78
10176;BME280;18221;38.704;0.152;2022-09-21T03:10:53;98954.91;;;26.80;47.95
10176;BME280;18221;38.704;0.152;2022-09-21T03:13:21;98953.50;;;26.78;47.90
10176;BME280;18221;38.704;0.152;2022-09-21T03:15:49;98955.41;;;26.77;47.91
10176;BME280;18221;38.704;0.152;2022-09-21T03:18:17;98958.00;;;26.72;47.98
10176;BME280;18221;38.704;0.152;2022-09-21T03:20:46;98959.31;;;26.70;47.91
10176;BME280;18221;38.704;0.152;2022-09-21T03:23:14;98953.28;;;26.68;48.08
10176;BME280;18221;38.704;0.152;2022-09-21T03:25:44;98956.25;;;26.66;48.14
10176;BME280;18221;38.704;0.152;2022-09-21T03:28:12;98961.72;;;26.66;48.00
10176;BME280;18221;38.704;0.152;2022-09-21T03:30:41;98955.16;;;26.67;47.99
10176;BME280;18221;38.704;0.152;2022-09-21T03:33:10;98954.38;;;26.67;48.16
10176;BME280;18221;38.704;0.152;2022-09-21T03:35:38;98954.47;;;26.72;48.06
10176;BME280;18221;38.704;0.152;2022-09-21T03:38:07;98953.13;;;26.74;48.08
10176;BME280;18221;38.704;0.152;2022-09-21T03:40:35;98961.31;;;26.74;47.71
10176;BME280;18221;38.704;0.152;2022-09-21T03:43:03;98956.44;;;26.76;47.90
10176;BME280;18221;38.704;0.152;2022-09-21T03:45:31;98959.78;;;26.78;47.90
10176;BME280;18221;38.704;0.152;2022-09-21T03:48:00;98957.88;;;26.79;47.89
10176;BME280;18221;38.704;0.152;2022-09-21T03:50:29;98955.16;;;26.79;47.63
10176;BME280;18221;38.704;0.152;2022-09-21T03:52:57;98954.09;;;26.80;47.58
10176;BME280;18221;38.704;0.152;2022-09-21T03:55:27;98964.75;;;26.81;47.56
10176;BME280;18221;38.704;0.152;2022-09-21T03:57:55;98963.06;;;26.80;47.63
10176;BME280;18221;38.704;0.152;2022-09-21T04:00:23;98962.00;;;26.81;47.52
10176;BME280;18221;38.704;0.152;2022-09-21T04:02:51;98950.06;;;26.82;47.57
10176;BME280;18221;38.704;0.152;2022-09-21T04:05:19;98950.06;;;26.82;47.54
10176;BME280;18221;38.704;0.152;2022-09-21T04:07:47;98940.47;;;26.80;47.43
10176;BME280;18221;38.704;0.152;2022-09-21T04:10:18;98942.09;;;26.81;47.61
10176;BME280;18221;38.704;0.152;2022-09-21T04:12:49;98946.59;;;26.87;47.58
10176;BME280;18221;38.704;0.152;2022-09-21T04:15:18;98939.25;;;26.87;47.20
10176;BME280;18221;38.704;0.152;2022-09-21T04:17:50;98943.69;;;26.93;47.23
10176;BME280;18221;38.704;0.152;2022-09-21T04:20:19;98944.78;;;26.92;47.25
10176;BME280;18221;38.704;0.152;2022-09-21T04:22:47;98946.41;;;26.93;47.32
10176;BME280;18221;38.704;0.152;2022-09-21T04:25:17;98946.94;;;26.90;47.55
10176;BME280;18221;38.704;0.152;2022-09-21T04:27:45;98950.72;;;26.89;47.49
10176;BME280;18221;38.704;0.152;2022-09-21T04:30:16;98939.97;;;26.83;47.41
10176;BME280;18221;38.704;0.152;2022-09-21T04:32:44;98954.66;;;26.82;47.50
10176;BME280;18221;38.704;0.152;2022-09-21T04:35:12;98954.19;;;26.85;47.55
10176;BME280;18221;38.704;0.152;2022-09-21T04:37:39;98963.16;;;26.85;47.52
10176;BME280;18221;38.704;0.152;2022-09-21T04:40:08;98956.56;;;26.81;47.68
10176;BME280;18221;38.704;0.152;2022-09-21T04:42:36;98959.88;;;26.83;47.73
10176;BME280;18221;38.704;0.152;2022-09-21T04:45:05;98961.53;;;26.84;47.72
10176;BME280;18221;38.704;0.152;2022-09-21T04:47:34;98954.41;;;26.83;47.75
10176;BME280;18221;38.704;0.152;2022-09-21T04:50:03;98955.72;;;26.81;47.58
10176;BME280;18221;38.704;0.152;2022-09-21T04:52:31;98956.00;;;26.79;47.97
10176;BME280;18221;38.704;0.152;2022-09-21T04:55:00;98954.41;;;26.83;47.81
10176;BME280;18221;38.704;0.152;2022-09-21T04:57:28;98952.03;;;26.87;47.90
10176;BME280;18221;38.704;0.152;2022-09-21T04:59:56;98952.19;;;26.80;47.94
10176;BME280;18221;38.704;0.152;2022-09-21T05:02:24;98953.25;;;26.79;48.06
10176;BME280;18221;38.704;0.152;2022-09-21T05:04:53;98957.03;;;26.78;48.29
10176;BME280;18221;38.704;0.152;2022-09-21T05:07:21;98959.53;;;26.80;48.12
10176;BME280;18221;38.704;0.152;2022-09-21T05:09:49;98961.66;;;26.78;48.12
10176;BME280;18221;38.704;0.152;2022-09-21T05:12:28;98958.59;;;26.74;48.40
10176;BME280;18221;38.704;0.152;2022-09-21T05:14:56;98967.00;;;26.73;48.48
10176;BME280;18221;38.704;0.152;2022-09-21T05:17:24;98969.41;;;26.69;48.56
10176;BME280;18221;38.704;0.152;2022-09-21T05:19:53;98969.97;;;26.71;48.76
10176;BME280;18221;38.704;0.152;2022-09-21T05:22:21;98973.75;;;26.70;48.64
10176;BME280;18221;38.704;0.152;2022-09-21T05:24:49;98967.16;;;26.66;48.45
10176;BME280;18221;38.704;0.152;2022-09-21T05:27:17;98965.97;;;26.62;48.74
10176;BME280;18221;38.704;0.152;2022-09-21T05:29:45;98967.28;;;26.60;48.51
10176;BME280;18221;38.704;0.152;2022-09-21T05:32:20;98955.69;;;26.64;48.46
10176;BME280;18221;38.704;0.152;2022-09-21T05:35:07;98960.97;;;26.71;48.33
10176;BME280;18221;38.704;0.152;2022-09-21T05:37:56;98964.53;;;26.71;48.29
10176;BME280;18221;38.704;0.152;2022-09-21T05:40:26;98967.25;;;26.71;48.30
10176;BME280;18221;38.704;0.152;2022-09-21T05:42:54;98962.38;;;26.73;48.06
10176;BME280;18221;38.704;0.152;2022-09-21T05:45:23;98960.03;;;26.77;48.14
10176;BME280;18221;38.704;0.152;2022-09-21T05:48:06;98963.22;;;26.74;48.33
10176;BME280;18221;38.704;0.152;2022-09-21T05:50:55;98971.03;;;26.70;48.50
10176;BME280;18221;38.704;0.152;2022-09-21T05:53:48;98973.38;;;26.50;48.79
10176;BME280;18221;38.704;0.152;2022-09-21T05:56:42;98980.50;;;26.51;49.04
10176;BME280;18221;38.704;0.152;2022-09-21T05:59:52;98983.00;;;26.69;48.57
10176;BME280;18221;38.704;0.152;2022-09-21T06:02:41;98978.63;;;26.68;48.53
10176;BME280;18221;38.704;0.152;2022-09-21T06:05:14;98981.16;;;26.58;48.81
10176;BME280;18221;38.704;0.152;2022-09-21T06:07:43;98973.09;;;26.63;48.39
10176;BME280;18221;38.704;0.152;2022-09-21T06:10:12;98974.75;;;26.64;48.65
10176;BME280;18221;38.704;0.152;2022-09-21T06:12:41;98976.97;;;26.67;48.46
10176;BME280;18221;38.704;0.152;2022-09-21T06:15:12;98983.09;;;26.74;48.25
10176;BME280;18221;38.704;0.152;2022-09-21T06:17:40;98996.03;;;26.79;48.25
10176;BME280;18221;38.704;0.152;2022-09-21T06:20:09;98995.19;;;26.78;48.32
10176;BME280;18221;38.704;0.152;2022-09-21T06:22:37;99000.41;;;26.80;48.30
10176;BME280;18221;38.704;0.152;2022-09-21T06:25:08;98994.59;;;26.76;48.09
10176;BME280;18221;38.704;0.152;2022-09-21T06:27:35;99000.91;;;26.77;47.97
10176;BME280;18221;38.704;0.152;2022-09-21T06:30:05;99000.72;;;26.83;48.17
10176;BME280;18221;38.704;0.152;2022-09-21T06:32:32;99006.03;;;26.90;47.92
10176;BME280;18221;38.704;0.152;2022-09-21T06:35:00;99005.22;;;26.89;48.09
10176;BME280;18221;38.704;0.152;2022-09-21T06:37:28;99002.22;;;26.91;48.08
10176;BME280;18221;38.704;0.152;2022-09-21T06:39:56;99009.09;;;26.93;48.04
10176;BME280;18221;38.704;0.152;2022-09-21T06:42:26;98999.38;;;26.98;47.99
10176;BME280;18221;38.704;0.152;2022-09-21T06:44:54;99003.50;;;27.00;47.79
10176;BME280;18221;38.704;0.152;2022-09-21T06:47:22;98997.31;;;27.05;47.76
10176;BME280;18221;38.704;0.152;2022-09-21T06:49:50;99001.69;;;27.06;47.83
10176;BME280;18221;38.704;0.152;2022-09-21T06:52:19;99005.34;;;27.11;47.68
10176;BME280;18221;38.704;0.152;2022-09-21T06:54:46;99009.47;;;27.14;47.49
10176;BME280;18221;38.704;0.152;2022-09-21T06:57:14;99007.88;;;27.18;47.50
10176;BME280;18221;38.704;0.152;2022-09-21T06:59:43;99002.09;;;27.14;47.06
10176;BME280;18221;38.704;0.152;2022-09-21T07:02:12;99006.47;;;27.15;46.98
10176;BME280;18221;38.704;0.152;2022-09-21T07:04:39;99008.06;;;27.28;47.25
10176;BME280;18221;38.704;0.152;2022-09-21T07:07:07;98998.06;;;27.33;47.31
10176;BME280;18221;38.704;0.152;2022-09-21T07:09:35;98999.47;;;27.36;47.12
10176;BME280;18221;38.704;0.152;2022-09-21T07:12:03;98998.97;;;27.39;46.94
10176;BME280;18221;38.704;0.152;2022-09-21T07:14:32;98997.94;;;27.40;47.07
10176;BME280;18221;38.704;0.152;2022-09-21T07:17:01;99003.47;;;27.45;47.17
10176;BME280;18221;38.704;0.152;2022-09-21T07:19:29;98995.88;;;27.47;46.82
10176;BME280;18221;38.704;0.152;2022-09-21T07:21:57;98998.69;;;27.52;47.03
10176;BME280;18221;38.704;0.152;2022-09-21T07:24:25;98999.66;;;27.46;47.09
10176;BME280;18221;38.704;0.152;2022-09-21T07:26:54;98997.75;;;27.46;47.23
10176;BME280;18221;38.704;0.152;2022-09-21T07:29:22;98993.22;;;27.52;47.25
10176;BME280;18221;38.704;0.152;2022-09-21T07:31:50;99000.16;;;27.60;46.80
10176;BME280;18221;38.704;0.152;2022-09-21T07:34:19;99003.44;;;27.62;46.68
10176;BME280;18221;38.704;0.152;2022-09-21T07:36:47;99006.09;;;27.56;46.99
10176;BME280;18221;38.704;0.152;2022-09-21T07:39:15;99019.25;;;27.60;47.66
10176;BME280;18221;38.704;0.152;2022-09-21T07:41:43;99014.34;;;27.78;47.08
10176;BME280;18221;38.704;0.152;2022-09-21T07:44:11;99023.31;;;27.95;47.16
10176;BME280;18221;38.704;0.152;2022-09-21T07:46:39;99020.78;;;28.05;46.13
10176;BME280;18221;38.704;0.152;2022-09-21T07:49:07;99028.59;;;28.18;45.99
10176;BME280;18221;38.704;0.152;2022-09-21T07:51:36;99016.94;;;28.23;45.64
10176;BME280;18221;38.704;0.152;2022-09-21T07:54:04;99019.41;;;28.25;45.32
10176;BME280;18221;38.704;0.152;2022-09-21T07:56:32;99027.97;;;28.11;45.40
10176;BME280;18221;38.704;0.152;2022-09-21T07:59:00;99028.66;;;28.24;45.13
10176;BME280;18221;38.704;0.152;2022-09-21T08:01:34;99023.84;;;28.31;44.82
10176;BME280;18221;38.704;0.152;2022-09-21T08:04:05;99021.00;;;28.21;44.10
10176;BME280;18221;38.704;0.152;2022-09-21T08:06:36;99016.09;;;28.23;43.88
10176;BME280;18221;38.704;0.152;2022-09-21T08:09:05;99013.44;;;28.28;43.90
10176;BME280;18221;38.704;0.152;2022-09-21T08:11:34;99020.72;;;28.22;43.71
10176;BME280;18221;38.704;0.152;2022-09-21T08:14:03;99018.97;;;28.33;43.98
10176;BME280;18221;38.704;0.152;2022-09-21T08:16:32;99024.53;;;28.43;43.92
10176;BME280;18221;38.704;0.152;2022-09-21T08:19:00;99041.72;;;28.60;43.44
10176;BME280;18221;38.704;0.152;2022-09-21T08:21:28;99040.03;;;28.59;43.81
10176;BME280;18221;38.704;0.152;2022-09-21T08:23:57;99039.19;;;28.75;43.86
10176;BME280;18221;38.704;0.152;2022-09-21T08:26:25;99045.75;;;29.01;43.01
10176;BME280;18221;38.704;0.152;2022-09-21T08:28:53;99040.47;;;28.94;42.14
10176;BME280;18221;38.704;0.152;2022-09-21T08:31:24;99043.25;;;28.72;42.57
10176;BME280;18221;38.704;0.152;2022-09-21T08:33:54;99046.97;;;28.88;42.08
10176;BME280;18221;38.704;0.152;2022-09-21T08:36:23;99044.72;;;29.07;42.05
10176;BME280;18221;38.704;0.152;2022-09-21T08:38:51;99050.66;;;29.25;41.29
10176;BME280;18221;38.704;0.152;2022-09-21T08:41:26;99042.31;;;29.15;41.48
10176;BME280;18221;38.704;0.152;2022-09-21T08:44:10;99051.63;;;29.14;41.61
10176;BME280;18221;38.704;0.152;2022-09-21T08:46:42;99047.88;;;29.20;41.19
10176;BME280;18221;38.704;0.152;2022-09-21T08:49:16;99040.31;;;29.27;41.15
10176;BME280;18221;38.704;0.152;2022-09-21T08:51:50;99041.88;;;29.23;41.69
10176;BME280;18221;38.704;0.152;2022-09-21T08:54:27;99045.13;;;29.20;41.68
10176;BME280;18221;38.704;0.152;2022-09-21T08:56:57;99040.94;;;29.13;41.51
10176;BME280;18221;38.704;0.152;2022-09-21T08:59:25;99049.13;;;29.13;42.09
10176;BME280;18221;38.704;0.152;2022-09-21T09:01:59;99051.69;;;29.19;41.33
10176;BME280;18221;38.704;0.152;2022-09-21T09:04:51;99051.00;;;29.07;42.00
10176;BME280;18221;38.704;0.152;2022-09-21T09:07:46;99059.16;;;28.75;42.67
10176;BME280;18221;38.704;0.152;2022-09-21T09:10:35;99053.47;;;28.82;42.39
10176;BME280;18221;38.704;0.152;2022-09-21T09:13:32;99052.41;;;28.83;42.75
10176;BME280;18221;38.704;0.152;2022-09-21T09:16:18;99045.97;;;28.72;42.26
10176;BME280;18221;38.704;0.152;2022-09-21T09:18:54;99059.50;;;28.84;42.38
10176;BME280;18221;38.704;0.152;2022-09-21T09:21:28;99055.78;;;28.95;41.94
10176;BME280;18221;38.704;0.152;2022-09-21T09:24:04;99054.09;;;28.89;42.31
10176;BME280;18221;38.704;0.152;2022-09-21T09:26:43;99050.75;;;29.09;41.95
10176;BME280;18221;38.704;0.152;2022-09-21T09:29:21;99055.84;;;29.22;41.47
10176;BME280;18221;38.704;0.152;2022-09-21T09:31:53;99053.16;;;29.27;41.19
10176;BME280;18221;38.704;0.152;2022-09-21T09:34:29;99053.97;;;29.59;40.81
10176;BME280;18221;38.704;0.152;2022-09-21T09:37:08;99053.28;;;29.74;40.21
10176;BME280;18221;38.704;0.152;2022-09-21T09:39:37;99054.44;;;29.83;40.12
10176;BME280;18221;38.704;0.152;2022-09-21T09:42:40;99053.19;;;29.95;40.56
10176;BME280;18221;38.704;0.152;2022-09-21T09:48:34;99042.22;;;30.37;38.39
10176;BME280;18221;38.704;0.152;2022-09-21T09:51:08;99047.13;;;30.35;37.98
10176;BME280;18221;38.704;0.152;2022-09-21T09:53:38;99044.16;;;30.42;38.32
10176;BME280;18221;38.704;0.152;2022-09-21T09:56:09;99040.03;;;30.39;38.68
10176;BME280;18221;38.704;0.152;2022-09-21T09:58:44;99048.84;;;30.46;38.35
10176;BME280;18221;38.704;0.152;2022-09-21T10:01:39;99043.91;;;30.53;38.44
10176;BME280;18221;38.704;0.152;2022-09-21T10:04:09;99050.50;;;30.52;38.07
10176;BME280;18221;38.704;0.152;2022-09-21T10:06:38;99055.94;;;30.37;38.61
10176;BME280;18221;38.704;0.152;2022-09-21T10:09:23;99047.13;;;30.35;38.99
10176;BME280;18221;38.704;0.152;2022-09-21T10:11:55;99045.81;;;30.48;38.50
10176;BME280;18221;38.704;0.152;2022-09-21T10:14:27;99049.13;;;30.50;38.27
10176;BME280;18221;38.704;0.152;2022-09-21T10:17:03;99046.91;;;30.42;38.62
10176;BME280;18221;38.704;0.152;2022-09-21T10:19:32;99047.16;;;30.45;38.35
10176;BME280;18221;38.704;0.152;2022-09-21T10:22:03;99050.19;;;30.44;38.61
10176;BME280;18221;38.704;0.152;2022-09-21T10:24:34;99050.47;;;30.42;38.05
10176;BME280;18221;38.704;0.152;2022-09-21T10:27:09;99053.75;;;30.39;37.87
10176;BME280;18221;38.704;0.152;2022-09-21T10:29:41;99053.94;;;30.33;38.57
10176;BME280;18221;38.704;0.152;2022-09-21T10:32:28;99056.13;;;30.31;38.90
10176;BME280;18221;38.704;0.152;2022-09-21T10:35:13;99049.47;;;30.17;38.66
10176;BME280;18221;38.704;0.152;2022-09-21T10:37:43;99041.59;;;30.30;38.53
10176;BME280;18221;38.704;0.152;2022-09-21T10:40:27;99027.47;;;30.53;38.63
10176;BME280;18221;38.704;0.152;2022-09-21T10:42:59;99029.44;;;30.58;37.85
10176;BME280;18221;38.704;0.152;2022-09-21T10:45:29;99021.41;;;30.36;38.11
10176;BME280;18221;38.704;0.152;2022-09-21T10:48:15;99024.09;;;30.31;38.11
10176;BME280;18221;38.704;0.152;2022-09-21T10:50:46;99025.84;;;30.47;38.35
10176;BME280;18221;38.704;0.152;2022-09-21T10:53:23;99026.13;;;30.61;38.24
10176;BME280;18221;38.704;0.152;2022-09-21T10:56:01;99026.75;;;30.78;38.01
10176;BME280;18221;38.704;0.152;2022-09-21T10:58:31;99025.13;;;30.87;37.76
10176;BME280;18221;38.704;0.152;2022-09-21T11:01:12;99034.75;;;30.95;37.72
10176;BME280;18221;38.704;0.152;2022-09-21T11:03:55;99025.22;;;31.07;37.15
10176;BME280;18221;38.704;0.152;2022-09-21T11:06:32;99032.91;;;31.26;36.41
10176;BME280;18221;38.704;0.152;2022-09-21T11:09:08;99039.75;;;31.18;36.50
10176;BME280;18221;38.704;0.152;2022-09-21T11:11:50;99036.44;;;31.11;37.19
10176;BME280;18221;38.704;0.152;2022-09-21T11:14:36;99039.75;;;31.18;36.98
10176;BME280;18221;38.704;0.152;2022-09-21T11:17:16;99046.34;;;31.27;36.30
10176;BME280;18221;38.704;0.152;2022-09-21T11:19:56;99047.16;;;31.02;36.96
10176;BME280;18221;38.704;0.152;2022-09-21T11:22:42;99049.50;;;30.79;36.86
10176;BME280;18221;38.704;0.152;2022-09-21T11:25:29;99051.16;;;30.80;37.62
10176;BME280;18221;38.704;0.152;2022-09-21T11:28:08;99061.13;;;31.11;37.60
10176;BME280;18221;38.704;0.152;2022-09-21T11:31:09;99051.84;;;31.32;36.08
10176;BME280;18221;38.704;0.152;2022-09-21T11:34:04;99052.13;;;31.41;35.88
10176;BME280;18221;38.704;0.152;2022-09-21T11:36:53;99061.47;;;31.55;35.88
10176;BME280;18221;38.704;0.152;2022-09-21T11:39:35;99052.66;;;31.33;36.21
10176;BME280;18221;38.704;0.152;2022-09-21T11:42:29;99057.06;;;31.39;36.53
10176;BME280;18221;38.704;0.152;2022-09-21T11:45:01;99060.09;;;31.47;35.92
10176;BME280;18221;38.704;0.152;2022-09-21T11:47:48;99067.22;;;31.43;35.47
10176;BME280;18221;38.704;0.152;2022-09-21T11:50:40;99060.59;;;31.34;35.86
10176;BME280;18221;38.704;0.152;2022-09-21T11:53:28;99057.84;;;31.24;35.67
10176;BME280;18221;38.704;0.152;2022-09-21T11:56:25;99058.03;;;30.87;37.01
10176;BME280;18221;38.704;0.152;2022-09-21T11:59:12;99056.09;;;30.83;36.96
10176;BME280;18221;38.704;0.152;2022-09-21T12:02:03;99053.41;;;30.93;36.15
10176;BME280;18221;38.704;0.152;2022-09-21T12:04:47;99057.75;;;30.79;37.19
10176;BME280;18221;38.704;0.152;2022-09-21T12:07:37;99051.63;;;30.62;37.40
10176;BME280;18221;38.704;0.152;2022-09-21T12:10:45;99052.13;;;30.53;37.65
10176;BME280;18221;38.704;0.152;2022-09-21T12:13:31;99050.56;;;30.63;37.50
10176;BME280;18221;38.704;0.152;2022-09-21T12:16:09;99050.00;;;30.66;37.03
10176;BME280;18221;38.704;0.152;2022-09-21T12:18:47;99047.88;;;30.83;36.84
10176;BME280;18221;38.704;0.152;2022-09-21T12:21:22;99044.06;;;30.89;36.79
10176;BME280;18221;38.704;0.152;2022-09-21T12:23:55;99048.16;;;30.86;36.88
10176;BME280;18221;38.704;0.152;2022-09-21T12:26:32;99045.78;;;31.00;36.66
10176;BME280;18221;38.704;0.152;2022-09-21T12:29:11;99032.91;;;31.21;36.53
10176;BME280;18221;38.704;0.152;2022-09-21T12:31:54;99031.78;;;31.16;36.37
10176;BME280;18221;38.704;0.152;2022-09-21T12:34:29;99032.63;;;31.22;35.58
10176;BME280;18221;38.704;0.152;2022-09-21T12:37:09;99025.75;;;31.20;36.01
10176;BME280;18221;38.704;0.152;2022-09-21T12:39:46;99019.44;;;31.04;35.82
10176;BME280;18221;38.704;0.152;2022-09-21T12:42:30;99017.22;;;31.01;36.04
10176;BME280;18221;38.704;0.152;2022-09-21T12:45:05;99013.13;;;30.98;36.32
10176;BME280;18221;38.704;0.152;2022-09-21T12:47:51;99012.03;;;30.94;36.10
10176;BME280;18221;38.704;0.152;2022-09-21T12:50:28;99014.25;;;31.12;35.91
10176;BME280;18221;38.704;0.152;2022-09-21T12:52:58;98999.41;;;31.03;36.21
10176;BME280;18221;38.704;0.152;2022-09-21T12:55:48;99000.78;;;31.06;36.01
10176;BME280;18221;38.704;0.152;2022-09-21T12:58:53;98998.31;;;31.09;35.77
10176;BME280;18221;38.704;0.152;2022-09-21T13:01:34;98991.72;;;31.10;36.44
10176;BME280;18221;38.704;0.152;2022-09-21T13:08:03;98986.28;;;31.31;35.19
10176;BME280;18221;38.704;0.152;2022-09-21T13:10:56;98975.00;;;31.42;34.27
10176;BME280;18221;38.704;0.152;2022-09-21T13:13:31;98981.03;;;31.29;35.73
10176;BME280;18221;38.704;0.152;2022-09-21T13:16:01;98966.78;;;31.47;35.42
10176;BME280;18221;38.704;0.152;2022-09-21T13:18:33;98974.44;;;31.65;33.71
10176;BME280;18221;38.704;0.152;2022-09-21T13:21:15;98965.88;;;31.92;33.55
10176;BME280;18221;38.704;0.152;2022-09-21T13:23:51;98958.16;;;32.19;33.31
10176;BME280;18221;38.704;0.152;2022-09-21T13:26:38;98951.81;;;32.19;32.91
10176;BME280;18221;38.704;0.152;2022-09-21T13:29:28;98959.56;;;31.92;32.27
10176;BME280;18221;38.704;0.152;2022-09-21T13:31:59;98940.84;;;32.14;32.88
10176;BME280;18221;38.704;0.152;2022-09-21T13:34:31;98946.75;;;32.41;33.26
10176;BME280;18221;38.704;0.152;2022-09-21T13:37:29;98945.53;;;32.67;32.50
10176;BME280;18221;38.704;0.152;2022-09-21T13:40:41;98938.88;;;32.78;30.84
10176;BME280;18221;38.704;0.152;2022-09-21T13:43:45;98940.44;;;32.46;31.32
10176;BME280;18221;38.704;0.152;2022-09-21T13:46:52;98933.25;;;32.50;29.11
10176;BME280;18221;38.704;0.152;2022-09-21T13:49:29;98930.50;;;32.55;28.41
10176;BME280;18221;38.704;0.152;2022-09-21T13:52:03;98922.72;;;32.72;28.57
10176;BME280;18221;38.704;0.152;2022-09-21T13:54:37;98929.28;;;32.76;29.65
10176;BME280;18221;38.704;0.152;2022-09-21T13:57:17;98924.22;;;32.88;28.96